Terminal Aerodrome Forecast
Issued by NWS Brownsville, TX

Home | Current Version | Previous Version | Text Only | Print | Product List | Glossary On
Versions: 1 2 3 4 5 6 7 8 9 10 11 12 13 14
000
FTUS44 KBRO 261130
TAFBRO
TAF
KBRO 261130Z 2612/2712 VRB05KT P6SM FEW020
     FM261500 14009KT P6SM SCT040
     FM261800 09012G20KT P6SM BKN050
     FM270100 10006KT P6SM FEW020=

USA.gov is the U.S. government's official web portal to all federal, state and local government web resources and services.